Time;durP1;ratioP1;P1;durP2;ratioP2;P2;SDS_P1;SDS_P2;PMS_P1;PMS_P2;Temp;Humidity;BMP_temperature;BMP_pressure;BME280_temperature;BME280_humidity;BME280_pressure;Samples;Min_cycle;Max_cycle;Signal;HPM_P1;HPM_P2
2022/11/02 00:00:46;;;;;;;19.30;14.02;;;15.90;69.10;;;;;;6306491;22;20053;-71
2022/11/02 00:03:12;;;;;;;21.63;14.52;;;15.90;69.80;;;;;;6306616;22;20097;-71
2022/11/02 00:05:37;;;;;;;22.95;15.27;;;15.90;69.00;;;;;;6279221;22;20010;-71
2022/11/02 00:08:03;;;;;;;22.27;14.43;;;15.90;69.20;;;;;;6306828;22;20003;-71
2022/11/02 00:10:29;;;;;;;24.42;14.60;;;15.90;69.20;;;;;;6306895;22;19999;-70
2022/11/02 00:12:56;;;;;;;20.60;14.32;;;15.90;69.40;;;;;;6306664;22;20007;-71
2022/11/02 00:15:25;;;;;;;26.85;14.35;;;15.90;69.40;;;;;;6306729;22;20048;-71
2022/11/02 00:17:57;;;;;;;22.98;15.10;;;15.90;69.50;;;;;;6306464;22;20007;-71
2022/11/02 00:20:25;;;;;;;23.15;14.77;;;15.90;69.50;;;;;;6306575;22;20414;-71
2022/11/02 00:22:56;;;;;;;26.20;14.50;;;15.90;69.60;;;;;;6306191;22;20041;-71
2022/11/02 00:25:24;;;;;;;25.88;15.90;;;15.90;69.60;;;;;;6306229;22;20338;-72
2022/11/02 00:27:50;;;;;;;24.00;14.60;;;15.90;69.50;;;;;;6305876;22;20113;-71
2022/11/02 00:30:16;;;;;;;20.80;13.95;;;15.90;69.50;;;;;;6306462;22;20003;-71
2022/11/02 00:32:42;;;;;;;20.30;14.38;;;16.00;69.60;;;;;;6306518;22;20372;-71
2022/11/02 00:35:09;;;;;;;22.17;14.80;;;16.00;69.60;;;;;;6306091;22;20084;-71
2022/11/02 00:37:35;;;;;;;21.35;14.00;;;16.00;69.60;;;;;;6306323;22;20014;-71
2022/11/02 00:40:01;;;;;;;24.23;15.50;;;16.00;69.50;;;;;;6306431;22;20005;-71
2022/11/02 00:42:27;;;;;;;23.77;14.93;;;16.00;69.60;;;;;;6306404;22;20023;-71
2022/11/02 00:44:52;;;;;;;22.45;14.68;;;16.00;69.60;;;;;;6278978;22;20006;-71
2022/11/02 00:47:18;;;;;;;22.92;14.45;;;16.00;69.60;;;;;;6278956;22;20017;-71
2022/11/02 00:49:44;;;;;;;23.77;15.43;;;16.00;69.50;;;;;;6306436;22;20438;-71
2022/11/02 00:52:10;;;;;;;25.05;15.20;;;16.00;69.50;;;;;;6306303;22;19999;-71
2022/11/02 00:54:36;;;;;;;21.40;14.68;;;16.00;69.50;;;;;;6306142;22;20014;-71
2022/11/02 00:57:01;;;;;;;32.13;16.27;;;16.00;69.60;;;;;;6305944;22;20003;-71
2022/11/02 00:59:27;;;;;;;24.27;15.85;;;16.10;69.70;;;;;;6306065;22;19999;-71
2022/11/02 01:01:53;;;;;;;25.92;15.00;;;16.10;69.70;;;;;;6278698;22;20346;-71
2022/11/02 01:04:19;;;;;;;21.67;14.38;;;16.00;69.60;;;;;;6306000;22;19999;-71
2022/11/02 01:06:45;;;;;;;21.33;14.45;;;16.10;69.60;;;;;;6305984;22;20057;-71
2022/11/02 01:09:12;;;;;;;20.90;14.45;;;16.10;69.60;;;;;;6306144;22;20026;-71
2022/11/02 01:11:39;;;;;;;27.23;16.30;;;16.10;69.60;;;;;;6305765;22;20003;-71
2022/11/02 01:14:05;;;;;;;28.45;16.02;;;16.10;69.60;;;;;;6305922;22;20379;-71
2022/11/02 01:16:31;;;;;;;24.45;15.45;;;16.10;69.50;;;;;;6305901;22;20016;-71
2022/11/02 01:18:57;;;;;;;23.42;14.60;;;16.10;69.50;;;;;;6306069;22;19996;-71
2022/11/02 01:21:23;;;;;;;22.30;13.57;;;16.10;69.50;;;;;;6305834;22;20006;-71
2022/11/02 01:23:49;;;;;;;22.13;15.18;;;16.10;69.50;;;;;;6306096;22;20022;-71
2022/11/02 01:26:15;;;;;;;28.88;15.02;;;16.10;69.50;;;;;;6305849;22;20006;-71
2022/11/02 01:28:42;;;;;;;24.10;14.93;;;16.10;69.50;;;;;;6278646;22;19999;-71
2022/11/02 01:31:08;;;;;;;23.73;15.43;;;16.10;69.50;;;;;;6305908;22;20030;-71
2022/11/02 01:33:35;;;;;;;20.33;13.55;;;16.20;69.50;;;;;;6305877;22;20775;-71
2022/11/02 01:36:05;;;;;;;22.00;14.52;;;16.10;69.40;;;;;;6278349;22;19999;-71
2022/11/02 01:38:32;;;;;;;19.35;13.27;;;16.10;69.20;;;;;;6305852;22;20023;-71
2022/11/02 01:40:58;;;;;;;25.63;16.35;;;16.10;69.10;;;;;;6305769;22;20037;-71
2022/11/02 01:43:33;;;;;;;30.33;14.65;;;16.10;69.10;;;;;;6305875;22;20052;-71
2022/11/02 01:46:10;;;;;;;23.17;14.82;;;16.00;68.80;;;;;;6305761;22;19996;-71
2022/11/02 01:48:46;;;;;;;24.30;15.25;;;16.00;68.80;;;;;;6305770;22;19995;-71
2022/11/02 01:51:21;;;;;;;20.17;13.50;;;15.90;68.70;;;;;;6306129;22;20070;-71
2022/11/02 01:53:50;;;;;;;19.02;13.80;;;15.80;68.50;;;;;;6305685;22;20051;-71
2022/11/02 01:56:19;;;;;;;20.92;14.35;;;15.80;68.50;;;;;;6305162;22;19999;-71
2022/11/02 01:58:50;;;;;;;23.40;13.95;;;15.70;68.40;;;;;;6305367;22;20415;-71
2022/11/02 02:01:16;;;;;;;22.58;15.10;;;15.60;68.50;;;;;;6305574;22;20077;-71
2022/11/02 02:03:43;;;;;;;21.73;13.25;;;15.50;68.70;;;;;;6305556;22;20003;-71
2022/11/02 02:06:12;;;;;;;23.67;14.00;;;15.40;68.90;;;;;;6305160;22;20045;-71
2022/11/02 02:08:43;;;;;;;27.00;15.90;;;15.40;69.20;;;;;;6305435;22;20041;-71
2022/11/02 02:11:32;;;;;;;26.42;15.20;;;15.30;69.30;;;;;;6305515;22;20308;-71
2022/11/02 02:14:09;;;;;;;21.38;14.23;;;15.30;69.40;;;;;;6305354;22;20438;-71
2022/11/02 02:16:58;;;;;;;22.02;13.93;;;15.20;69.20;;;;;;6305093;22;20011;-71
2022/11/02 02:19:30;;;;;;;29.50;18.17;;;15.10;69.20;;;;;;6305752;22;19995;-71
2022/11/02 02:22:23;;;;;;;21.80;15.05;;;15.10;69.70;;;;;;6305335;22;20010;-71
2022/11/02 02:24:58;;;;;;;20.70;13.43;;;15.00;69.90;;;;;;6305390;22;20121;-71
2022/11/02 02:27:34;;;;;;;26.35;15.85;;;15.00;69.80;;;;;;6277871;22;20053;-71
2022/11/02 02:30:10;;;;;;;29.63;15.80;;;14.90;70.00;;;;;;6305411;22;20034;-71
2022/11/02 02:32:46;;;;;;;23.52;14.52;;;14.90;70.20;;;;;;6305266;22;20060;-71
2022/11/02 02:35:33;;;;;;;24.27;15.60;;;14.80;70.10;;;;;;6305203;22;20023;-71
2022/11/02 02:38:14;;;;;;;32.88;19.15;;;14.70;70.10;;;;;;6305339;22;20007;-71
2022/11/02 02:41:18;;;;;;;31.27;18.48;;;14.70;70.80;;;;;;6305419;22;20009;-71
2022/11/02 02:43:53;;;;;;;31.48;17.83;;;14.60;72.20;;;;;;6261725;22;20003;-71
2022/11/02 02:46:36;;;;;;;28.27;17.23;;;14.60;71.70;;;;;;6305306;22;20026;-71
2022/11/02 02:49:05;;;;;;;23.95;15.10;;;14.60;71.70;;;;;;6306620;22;20013;-71
2022/11/02 02:51:33;;;;;;;27.48;16.77;;;14.60;71.70;;;;;;6307210;22;20103;-71
2022/11/02 02:54:11;;;;;;;25.48;15.93;;;14.60;71.70;;;;;;6279970;22;19999;-71
2022/11/02 02:56:55;;;;;;;28.38;16.90;;;14.60;71.60;;;;;;6307182;22;20003;-71
2022/11/02 02:59:28;;;;;;;29.20;17.08;;;14.50;71.70;;;;;;6307414;22;19999;-71
2022/11/02 03:01:55;;;;;;;30.15;17.02;;;14.50;71.70;;;;;;6307752;22;19995;-71
2022/11/02 03:04:21;;;;;;;27.65;16.55;;;14.50;71.70;;;;;;6307347;22;20034;-71
2022/11/02 03:06:57;;;;;;;31.38;16.88;;;14.50;71.80;;;;;;6307178;22;20003;-71
2022/11/02 03:09:51;;;;;;;23.83;15.00;;;14.50;71.90;;;;;;6306955;22;20425;-71
2022/11/02 03:12:44;;;;;;;36.55;17.67;;;14.50;72.00;;;;;;6307094;22;19999;-70
2022/11/02 03:15:23;;;;;;;26.73;16.13;;;14.50;72.10;;;;;;6307161;22;19999;-71
2022/11/02 03:17:58;;;;;;;36.45;16.60;;;14.50;72.10;;;;;;6306755;22;20020;-71
2022/11/02 03:20:42;;;;;;;34.25;19.20;;;14.50;72.00;;;;;;6307038;22;20000;-70
2022/11/02 03:23:18;;;;;;;39.28;19.13;;;14.50;72.30;;;;;;6307010;22;20003;-71
2022/11/02 03:26:00;;;;;;;46.72;19.90;;;14.50;72.50;;;;;;6307060;22;20052;-71
2022/11/02 03:28:35;;;;;;;50.15;20.65;;;14.50;73.00;;;;;;6306745;22;19999;-71
2022/11/02 03:31:38;;;;;;;31.80;18.30;;;14.50;73.30;;;;;;6306651;22;20007;-71
2022/11/02 03:34:28;;;;;;;37.03;18.90;;;14.50;73.40;;;;;;6306069;22;20007;-71
2022/11/02 03:36:59;;;;;;;33.63;17.77;;;14.50;73.40;;;;;;6306837;22;20418;-71
2022/11/02 03:39:35;;;;;;;30.58;16.15;;;14.50;73.40;;;;;;6306864;22;20337;-71
2022/11/02 03:42:03;;;;;;;40.28;16.08;;;14.50;73.50;;;;;;6306801;22;20434;-71
2022/11/02 03:44:34;;;;;;;44.28;16.50;;;14.60;73.60;;;;;;6306747;22;19995;-71
2022/11/02 03:47:01;;;;;;;53.88;17.30;;;14.60;73.60;;;;;;6306816;22;20105;-71
2022/11/02 03:49:29;;;;;;;40.58;17.15;;;14.60;73.60;;;;;;6306798;22;20453;-71
2022/11/02 03:51:58;;;;;;;64.65;16.95;;;14.50;73.60;;;;;;6306775;22;20418;-71
2022/11/02 03:55:03;;;;;;;84.30;16.95;;;14.50;73.80;;;;;;6306750;22;20023;-71
2022/11/02 03:57:37;;;;;;;66.13;18.27;;;14.50;73.90;;;;;;6305483;22;20450;-71
2022/11/02 04:00:12;;;;;;;22.00;15.15;;;14.50;73.90;;;;;;6305566;22;20415;-71
2022/11/02 04:02:39;;;;;;;32.55;14.98;;;14.50;73.90;;;;;;6306515;22;20330;-71
2022/11/02 04:05:06;;;;;;;57.83;16.38;;;14.50;73.90;;;;;;6306493;22;20380;-71
2022/11/02 04:08:19;;;;;;;92.25;17.67;;;14.50;74.00;;;;;;6306505;22;20003;-71
2022/11/02 04:10:20;;;;;;;47.92;15.68;;;14.50;74.10;;;;;;6306052;22;20452;-71
2022/11/02 04:15:31;;;;;;;41.58;15.43;;;14.50;74.10;;;;;;6306930;22;20087;-71
2022/11/02 04:20:51;;;;;;;25.63;13.32;;;14.50;74.00;;;;;;6196939;22;20047;-71
2022/11/02 04:26:22;;;;;;;43.20;12.57;;;14.50;74.20;;;;;;6212288;23;20008;-71
2022/11/02 04:28:48;;;;;;;28.23;14.35;;;14.60;74.30;;;;;;6211503;23;20004;-71
2022/11/02 04:31:14;;;;;;;23.17;13.60;;;14.60;74.40;;;;;;6255638;22;20065;-71
2022/11/02 04:33:40;;;;;;;25.23;14.75;;;14.60;74.40;;;;;;6306359;22;20007;-70
2022/11/02 04:36:06;;;;;;;21.85;12.02;;;14.60;74.40;;;;;;6305838;22;19999;-70
2022/11/02 04:38:41;;;;;;;25.40;11.70;;;14.60;74.30;;;;;;6306231;22;20044;-71
2022/11/02 04:43:57;;;;;;;23.85;10.57;;;14.70;74.30;;;;;;6306269;22;20010;-71
2022/11/02 04:46:25;;;;;;;52.00;12.82;;;14.70;74.00;;;;;;6278672;22;20070;-71
2022/11/02 04:48:52;;;;;;;23.00;12.48;;;14.70;73.60;;;;;;6306198;22;20437;-71
2022/11/02 04:51:19;;;;;;;18.95;11.23;;;14.70;73.30;;;;;;6278435;22;20007;-70
2022/11/02 04:53:46;;;;;;;14.95;10.80;;;14.70;73.20;;;;;;6306116;22;20311;-71
2022/11/02 04:56:11;;;;;;;13.02;9.95;;;14.70;73.20;;;;;;6306058;22;20023;-71
2022/11/02 04:58:37;;;;;;;16.15;10.05;;;14.60;73.20;;;;;;6306148;22;19995;-71
2022/11/02 05:01:07;;;;;;;32.85;10.63;;;14.60;73.20;;;;;;6306152;22;20000;-71
2022/11/02 05:03:34;;;;;;;41.92;12.43;;;14.60;73.40;;;;;;6306376;22;20418;-71
2022/11/02 05:06:01;;;;;;;21.45;12.68;;;14.60;73.40;;;;;;6306962;22;19995;-71
2022/11/02 05:08:27;;;;;;;22.90;11.30;;;14.60;73.50;;;;;;6307010;22;20003;-71
2022/11/02 05:10:57;;;;;;;30.45;13.23;;;14.60;73.60;;;;;;6306884;22;20445;-70
2022/11/02 05:13:24;;;;;;;24.27;12.02;;;14.60;73.60;;;;;;6307410;22;20003;-71
2022/11/02 05:15:50;;;;;;;19.58;11.93;;;14.60;73.50;;;;;;6307187;22;20033;-71
2022/11/02 05:18:16;;;;;;;20.85;12.07;;;14.60;73.40;;;;;;6307332;22;20323;-71
2022/11/02 05:20:42;;;;;;;17.30;11.07;;;14.60;73.40;;;;;;6307359;22;20066;-71
2022/11/02 05:23:07;;;;;;;30.45;14.95;;;14.60;73.40;;;;;;6307276;22;19995;-71
2022/11/02 05:25:33;;;;;;;19.67;11.48;;;14.60;73.50;;;;;;6279893;22;20010;-71
2022/11/02 05:27:59;;;;;;;25.17;13.10;;;14.50;73.50;;;;;;6305482;22;20422;-71
2022/11/02 05:30:25;;;;;;;19.23;12.30;;;14.50;73.50;;;;;;6306187;22;20003;-71
2022/11/02 05:32:56;;;;;;;15.15;11.75;;;14.60;73.60;;;;;;6306016;22;20052;-71
2022/11/02 05:35:21;;;;;;;19.73;11.30;;;14.50;73.60;;;;;;6306356;22;20038;-70
2022/11/02 05:37:47;;;;;;;14.95;10.38;;;14.60;73.50;;;;;;6306447;22;20393;-71
2022/11/02 05:40:13;;;;;;;15.15;10.48;;;14.60;73.30;;;;;;6306958;22;20441;-71
2022/11/02 05:42:39;;;;;;;18.77;11.10;;;14.60;73.20;;;;;;6307498;22;20003;-71
2022/11/02 05:45:05;;;;;;;22.10;11.10;;;14.60;73.00;;;;;;6307332;22;20327;-71
2022/11/02 05:47:32;;;;;;;20.27;12.75;;;14.60;73.00;;;;;;6307294;22;20011;-71
2022/11/02 05:49:58;;;;;;;19.65;11.55;;;14.50;72.90;;;;;;6307281;22;20010;-71
2022/11/02 05:52:23;;;;;;;19.65;12.18;;;14.50;72.70;;;;;;6279860;22;20434;-71
2022/11/02 05:54:49;;;;;;;17.33;10.82;;;14.40;72.60;;;;;;6307211;22;19999;-71
2022/11/02 05:57:16;;;;;;;18.20;11.50;;;14.40;72.70;;;;;;6306889;22;20215;-71
2022/11/02 05:59:41;;;;;;;19.05;11.93;;;14.40;72.80;;;;;;6307114;22;20021;-71
2022/11/02 06:02:07;;;;;;;17.17;10.27;;;14.40;72.90;;;;;;6307033;22;20442;-71
2022/11/02 06:04:33;;;;;;;20.77;11.98;;;14.40;73.00;;;;;;6307149;22;20010;-71
2022/11/02 06:06:59;;;;;;;23.13;12.65;;;14.40;73.00;;;;;;6306943;22;20003;-71
2022/11/02 06:09:24;;;;;;;20.45;12.70;;;14.40;73.10;;;;;;6307050;22;20007;-71
2022/11/02 06:11:50;;;;;;;27.77;14.18;;;14.40;73.00;;;;;;6307139;22;20132;-71
2022/11/02 06:14:16;;;;;;;29.98;14.60;;;14.40;73.10;;;;;;6307120;22;19999;-71
2022/11/02 06:16:42;;;;;;;23.38;13.35;;;14.30;73.00;;;;;;6306831;22;20023;-71
2022/11/02 06:19:07;;;;;;;25.00;13.60;;;14.30;73.10;;;;;;6279642;22;20430;-71
2022/11/02 06:21:33;;;;;;;41.88;12.48;;;14.40;73.20;;;;;;6307283;22;20003;-72
2022/11/02 06:23:59;;;;;;;32.55;13.38;;;14.40;73.30;;;;;;6306925;22;19996;-71
2022/11/02 06:26:25;;;;;;;16.40;11.15;;;14.40;73.40;;;;;;6306745;22;19999;-71
2022/11/02 06:28:51;;;;;;;20.83;11.48;;;14.40;73.30;;;;;;6279623;22;20034;-71
2022/11/02 06:31:16;;;;;;;25.95;13.35;;;14.50;73.40;;;;;;6279839;22;20024;-71
2022/11/02 06:33:44;;;;;;;33.72;12.32;;;14.50;73.30;;;;;;6307256;22;20023;-71
2022/11/02 06:36:11;;;;;;;21.60;12.60;;;14.50;73.40;;;;;;6307039;22;20003;-71
2022/11/02 06:38:37;;;;;;;23.50;11.65;;;14.50;73.20;;;;;;6307191;22;20022;-71
2022/11/02 06:41:05;;;;;;;22.13;12.00;;;14.50;73.20;;;;;;6306847;22;19995;-71
2022/11/02 06:43:32;;;;;;;20.05;11.60;;;14.50;73.30;;;;;;6307139;22;20053;-71
2022/11/02 06:45:58;;;;;;;20.92;11.40;;;14.60;73.50;;;;;;6306926;22;19999;-71
2022/11/02 06:48:25;;;;;;;17.20;11.00;;;14.60;73.70;;;;;;6307115;22;20003;-71
2022/11/02 06:50:51;;;;;;;30.85;12.90;;;14.60;73.80;;;;;;6279686;22;20022;-71
2022/11/02 06:53:18;;;;;;;18.42;11.32;;;14.70;73.80;;;;;;6279745;22;20004;-71
2022/11/02 06:55:44;;;;;;;24.25;11.68;;;14.70;73.50;;;;;;6279603;22;20084;-71
2022/11/02 06:58:10;;;;;;;17.98;12.00;;;14.70;73.50;;;;;;6306740;22;20074;-71
2022/11/02 07:00:36;;;;;;;17.27;10.38;;;14.80;74.20;;;;;;6306473;22;20050;-71
2022/11/02 07:03:08;;;;;;;18.00;10.05;;;14.80;73.40;;;;;;6307065;22;20484;-71
2022/11/02 07:05:34;;;;;;;16.10;10.75;;;14.90;73.40;;;;;;6306898;22;19999;-71
2022/11/02 07:08:00;;;;;;;30.08;12.32;;;14.90;73.30;;;;;;6307067;22;20070;-71
2022/11/02 07:10:26;;;;;;;21.10;11.25;;;14.90;72.90;;;;;;6306643;22;20031;-71
2022/11/02 07:12:54;;;;;;;15.77;11.35;;;15.00;72.60;;;;;;6306918;22;20003;-71
2022/11/02 07:15:21;;;;;;;14.55;10.65;;;15.00;72.50;;;;;;6279659;22;20013;-71
2022/11/02 07:17:47;;;;;;;17.73;10.23;;;15.00;72.60;;;;;;6306808;22;20337;-71
2022/11/02 07:20:13;;;;;;;16.88;10.95;;;15.10;72.60;;;;;;6279628;22;20003;-71
2022/11/02 07:22:39;;;;;;;21.63;11.02;;;15.10;72.50;;;;;;6307040;22;19996;-71
2022/11/02 07:25:05;;;;;;;16.80;9.73;;;15.20;72.40;;;;;;6279538;22;20003;-71
2022/11/02 07:27:36;;;;;;;12.32;9.05;;;15.20;72.20;;;;;;6306887;22;20003;-71
2022/11/02 07:30:02;;;;;;;17.48;10.70;;;15.30;72.20;;;;;;6307102;22;19999;-71
2022/11/02 07:32:28;;;;;;;17.63;11.45;;;15.30;71.90;;;;;;6279657;22;20023;-71
2022/11/02 07:34:54;;;;;;;23.27;11.98;;;15.40;71.80;;;;;;6307771;22;20053;-71
2022/11/02 07:37:19;;;;;;;15.93;10.55;;;15.40;71.80;;;;;;6308758;22;20009;-71
2022/11/02 07:39:45;;;;;;;24.27;10.93;;;15.50;71.70;;;;;;6308757;22;19995;-71
2022/11/02 07:42:11;;;;;;;20.88;11.35;;;15.50;71.20;;;;;;6308392;22;19995;-71
2022/11/02 07:44:37;;;;;;;14.68;10.75;;;15.60;71.00;;;;;;6281457;22;20322;-71
2022/11/02 07:47:03;;;;;;;14.70;9.90;;;15.70;70.90;;;;;;6308693;22;20129;-71
2022/11/02 07:49:29;;;;;;;16.20;10.50;;;15.70;70.70;;;;;;6307982;22;20045;-71
2022/11/02 07:51:55;;;;;;;14.68;10.68;;;15.70;70.50;;;;;;6307760;22;20007;-71
2022/11/02 07:54:21;;;;;;;16.13;10.60;;;15.70;70.20;;;;;;6308560;22;19999;-71
2022/11/02 07:56:47;;;;;;;14.05;11.07;;;15.70;69.80;;;;;;6307915;22;20007;-72
2022/11/02 07:59:12;;;;;;;16.67;10.77;;;15.80;69.80;;;;;;6307955;22;20049;-71
2022/11/02 08:01:38;;;;;;;16.85;9.85;;;15.80;69.70;;;;;;6280955;22;20134;-71
2022/11/02 08:04:04;;;;;;;23.30;10.70;;;15.80;69.70;;;;;;6308113;22;20469;-72
2022/11/02 08:06:30;;;;;;;22.67;11.50;;;15.80;69.70;;;;;;6280498;22;20382;-72
2022/11/02 08:08:58;;;;;;;15.57;11.32;;;15.80;69.70;;;;;;6308264;22;20005;-71
2022/11/02 08:11:24;;;;;;;14.75;10.55;;;15.80;69.70;;;;;;6308279;22;19999;-72
2022/11/02 08:13:50;;;;;;;17.38;10.00;;;15.80;70.00;;;;;;6308420;22;20050;-72
2022/11/02 08:16:16;;;;;;;15.70;10.32;;;15.90;70.60;;;;;;6307893;22;20007;-71
2022/11/02 08:18:42;;;;;;;15.32;10.45;;;16.00;70.90;;;;;;6308444;22;19995;-71
2022/11/02 08:21:07;;;;;;;20.85;11.05;;;16.10;70.70;;;;;;6308178;22;20006;-72
2022/11/02 08:23:33;;;;;;;16.00;10.90;;;16.20;70.10;;;;;;6308242;22;20007;-71
2022/11/02 08:25:59;;;;;;;18.90;11.43;;;16.30;69.70;;;;;;6308328;22;19995;-71
2022/11/02 08:28:31;;;;;;;16.35;11.32;;;16.40;69.40;;;;;;6307625;22;19995;-71
2022/11/02 08:30:58;;;;;;;18.35;10.93;;;16.50;68.90;;;;;;6280794;22;20003;-72
2022/11/02 08:33:24;;;;;;;16.30;10.70;;;16.50;68.50;;;;;;6280723;22;20011;-71
2022/11/02 08:35:50;;;;;;;17.80;10.55;;;16.60;68.20;;;;;;6307862;22;20038;-72
2022/11/02 08:38:17;;;;;;;13.65;9.90;;;16.70;68.10;;;;;;6308090;22;20330;-72
2022/11/02 08:40:43;;;;;;;14.68;10.20;;;16.70;67.90;;;;;;6308090;22;19996;-71
2022/11/02 08:43:11;;;;;;;14.85;10.50;;;16.80;67.80;;;;;;6307603;22;20299;-71
2022/11/02 08:45:39;;;;;;;12.85;9.38;;;16.90;67.50;;;;;;6278593;22;20070;-72
2022/11/02 08:48:06;;;;;;;13.57;9.50;;;17.00;67.50;;;;;;6276019;22;20413;-72
2022/11/02 08:50:33;;;;;;;12.30;9.00;;;17.10;67.70;;;;;;6304033;22;20074;-71
2022/11/02 08:52:59;;;;;;;12.85;8.23;;;17.20;67.50;;;;;;6307203;22;20010;-71
2022/11/02 08:55:25;;;;;;;13.18;10.18;;;17.30;67.70;;;;;;6303623;22;20019;-71
2022/11/02 08:57:55;;;;;;;13.90;10.52;;;17.40;67.00;;;;;;6306522;22;20446;-71
2022/11/02 09:00:24;;;;;;;13.13;9.48;;;17.50;65.90;;;;;;6307263;22;20023;-71
2022/11/02 09:03:07;;;;;;;12.00;9.32;;;17.50;65.10;;;;;;6280077;22;20010;-71
2022/11/02 09:05:35;;;;;;;13.93;10.48;;;17.50;65.00;;;;;;6305308;22;20078;-71
2022/11/02 09:08:04;;;;;;;17.13;10.32;;;17.50;65.10;;;;;;6307391;22;20458;-71
2022/11/02 09:10:32;;;;;;;14.68;10.65;;;17.50;64.80;;;;;;6279999;22;20006;-70
2022/11/02 09:12:59;;;;;;;13.40;10.25;;;17.40;64.60;;;;;;6279840;22;20007;-70
2022/11/02 09:15:25;;;;;;;15.57;10.00;;;17.40;64.70;;;;;;6307306;22;20422;-70
2022/11/02 09:17:51;;;;;;;12.32;9.80;;;17.30;64.70;;;;;;6306962;22;20038;-70
2022/11/02 09:20:18;;;;;;;16.08;11.10;;;17.30;65.00;;;;;;6307241;22;19995;-71
2022/11/02 09:22:44;;;;;;;14.35;10.18;;;17.30;65.00;;;;;;6307086;22;19995;-71
2022/11/02 09:25:11;;;;;;;15.25;10.43;;;17.30;65.30;;;;;;6307402;22;20007;-72
2022/11/02 09:27:37;;;;;;;16.38;10.98;;;17.30;65.60;;;;;;6306737;22;20005;-73
2022/11/02 09:30:03;;;;;;;20.52;11.60;;;17.30;65.60;;;;;;6307320;22;20084;-72
2022/11/02 09:32:32;;;;;;;19.65;10.93;;;17.40;65.50;;;;;;6306942;22;20022;-71
2022/11/02 09:35:00;;;;;;;19.33;12.13;;;17.40;65.40;;;;;;6307093;22;20490;-71
2022/11/02 09:37:26;;;;;;;27.00;12.65;;;17.40;65.10;;;;;;6306986;22;20491;-71
2022/11/02 09:39:52;;;;;;;16.40;11.50;;;17.50;65.00;;;;;;6279706;22;20003;-73
2022/11/02 09:42:24;;;;;;;18.98;12.02;;;17.60;65.10;;;;;;6306609;22;20022;-76
2022/11/02 09:45:05;;;;;;;18.02;11.05;;;17.60;64.80;;;;;;6302907;22;20658;-72
2022/11/02 09:47:35;;;;;;;16.70;11.13;;;17.60;64.80;;;;;;6305687;22;20096;-78
2022/11/02 09:50:02;;;;;;;20.65;10.70;;;17.60;64.60;;;;;;6305765;22;20019;-79
2022/11/02 09:52:40;;;;;;;20.33;10.73;;;17.60;64.60;;;;;;6307039;22;20068;-80
2022/11/02 09:55:20;;;;;;;15.68;9.60;;;17.70;64.50;;;;;;6305770;22;20008;-77
2022/11/02 09:57:49;;;;;;;17.90;10.35;;;17.70;64.70;;;;;;6279271;22;19999;-76
2022/11/02 10:00:17;;;;;;;20.67;10.52;;;17.70;64.80;;;;;;6306815;22;20014;-72
2022/11/02 10:03:01;;;;;;;16.58;9.93;;;17.80;64.50;;;;;;6306933;22;19996;-75
2022/11/02 10:05:36;;;;;;;19.58;10.60;;;17.80;64.70;;;;;;6306749;22;20056;-72
2022/11/02 10:08:12;;;;;;;15.55;9.98;;;17.80;64.70;;;;;;6306459;22;20003;-74
2022/11/02 10:11:03;;;;;;;14.27;10.68;;;17.80;64.40;;;;;;6307073;22;20057;-76
2022/11/02 10:13:35;;;;;;;16.05;11.05;;;17.80;64.10;;;;;;6279224;22;20011;-73
2022/11/02 10:16:09;;;;;;;13.90;9.77;;;17.90;64.30;;;;;;6306599;22;20004;-72
2022/11/02 10:18:36;;;;;;;;;;;17.90;64.20;;;;;;6307122;22;20070;-72
2022/11/02 10:21:15;;;;;;;18.10;9.75;;;18.00;65.20;;;;;;6279153;22;19898;-75
2022/11/02 10:24:25;;;;;;;15.00;9.73;;;18.00;64.30;;;;;;6306072;22;19999;-75
2022/11/02 10:26:58;;;;;;;13.60;9.43;;;18.00;64.20;;;;;;6306640;22;20003;-74
2022/11/02 10:29:33;;;;;;;18.10;10.10;;;18.10;64.00;;;;;;6306750;22;20194;-73
2022/11/02 10:32:01;;;;;;;16.65;9.90;;;18.10;63.80;;;;;;6306647;22;20373;-74
2022/11/02 10:34:28;;;;;;;13.23;8.65;;;18.10;63.10;;;;;;6306634;22;20003;-69
2022/11/02 10:37:16;;;;;;;13.65;8.27;;;18.10;63.00;;;;;;6306710;22;20007;-74
2022/11/02 10:39:54;;;;;;;15.93;7.68;;;18.20;62.70;;;;;;6306378;22;20057;-74
2022/11/02 10:42:44;;;;;;;14.20;6.80;;;18.20;62.40;;;;;;6306798;22;20008;-71
2022/11/02 10:45:16;;;;;;;14.02;7.75;;;18.30;62.30;;;;;;6307025;22;20594;-69
2022/11/02 10:48:06;;;;;;;10.93;6.03;;;18.30;62.40;;;;;;6306410;22;20003;-75
2022/11/02 10:50:47;;;;;;;9.40;5.35;;;18.40;62.10;;;;;;6306655;22;20003;-75
2022/11/02 10:53:19;;;;;;;14.75;6.30;;;18.40;61.60;;;;;;6306543;22;20105;-72
2022/11/02 10:56:00;;;;;;;13.85;5.72;;;18.40;61.30;;;;;;6306640;22;20023;-73
2022/11/02 10:58:29;;;;;;;14.73;5.65;;;18.50;61.00;;;;;;6306429;22;20026;-74
2022/11/02 11:01:12;;;;;;;11.63;5.57;;;18.50;60.20;;;;;;6279535;22;20078;-75
2022/11/02 11:04:03;;;;;;;16.35;5.38;;;18.60;60.30;;;;;;6306750;22;19995;-77
2022/11/02 11:06:34;;;;;;;10.82;4.78;;;18.60;60.40;;;;;;6306437;22;20434;-79
2022/11/02 11:09:06;;;;;;;15.55;5.35;;;18.70;60.00;;;;;;6306897;22;20442;-77
2022/11/02 11:11:37;;;;;;;6.65;4.30;;;18.80;59.70;;;;;;6309046;22;20002;-75
2022/11/02 11:14:12;;;;;;;11.30;4.93;;;18.90;59.20;;;;;;6308861;22;20485;-77
2022/11/02 11:16:44;;;;;;;9.60;4.72;;;18.90;58.90;;;;;;6308086;22;20012;-71
2022/11/02 11:19:33;;;;;;;13.38;4.57;;;19.00;59.10;;;;;;6308718;22;20000;-73
2022/11/02 11:22:00;;;;;;;12.20;4.15;;;19.10;58.80;;;;;;6261495;22;20430;-70
2022/11/02 11:24:33;;;;;;;9.50;4.32;;;19.20;58.60;;;;;;6308398;22;20070;-69
2022/11/02 11:27:14;;;;;;;10.07;5.22;;;19.30;58.30;;;;;;6308407;22;20011;-72
2022/11/02 11:29:46;;;;;;;7.45;3.58;;;19.40;57.80;;;;;;6281158;22;20092;-72
2022/11/02 11:32:16;;;;;;;5.35;3.33;;;19.50;57.10;;;;;;6307860;22;20033;-71
2022/11/02 11:34:43;;;;;;;10.10;3.40;;;19.60;57.00;;;;;;6308023;22;19999;-71
2022/11/02 11:37:13;;;;;;;7.32;2.97;;;19.60;56.00;;;;;;6312276;22;20090;-74
2022/11/02 11:39:42;;;;;;;9.00;3.03;;;19.70;55.80;;;;;;6309305;22;20429;-72
2022/11/02 11:42:18;;;;;;;6.75;2.25;;;19.80;54.90;;;;;;6308474;22;19999;-70
2022/11/02 11:45:16;;;;;;;7.32;2.33;;;19.80;55.10;;;;;;6308464;22;19996;-70
2022/11/02 11:47:42;;;;;;;13.63;2.67;;;19.80;54.30;;;;;;6308221;22;20326;-73
2022/11/02 11:50:16;;;;;;;3.35;1.63;;;19.80;54.30;;;;;;6308107;22;20010;-72
2022/11/02 11:52:43;;;;;;;5.53;2.10;;;19.80;54.20;;;;;;6308294;22;20005;-75
2022/11/02 11:55:30;;;;;;;7.80;2.00;;;19.80;53.50;;;;;;6308442;22;20010;-74
2022/11/02 11:58:12;;;;;;;4.07;1.73;;;19.80;53.30;;;;;;6308026;22;20003;-74
2022/11/02 12:00:38;;;;;;;7.05;1.65;;;19.80;51.70;;;;;;6307789;22;20021;-72
2022/11/02 12:03:10;;;;;;;8.65;2.42;;;19.80;52.20;;;;;;6307962;22;20070;-72
2022/11/02 12:05:46;;;;;;;9.52;2.97;;;19.80;52.50;;;;;;6307732;22;20333;-82
2022/11/02 12:08:28;;;;;;;6.85;2.58;;;19.80;51.90;;;;;;6280721;22;20007;-76
2022/11/02 12:11:03;;;;;;;7.82;2.55;;;19.80;51.80;;;;;;6307986;22;20006;-76
2022/11/02 12:14:14;;;;;;;9.80;2.75;;;19.80;52.20;;;;;;6280381;22;20014;-75
2022/11/02 12:17:00;;;;;;;6.78;2.70;;;19.80;52.60;;;;;;6235791;22;20015;-74
2022/11/02 12:19:32;;;;;;;6.95;2.83;;;19.90;52.70;;;;;;6307882;22;19995;-76
2022/11/02 12:22:19;;;;;;;8.60;2.78;;;19.90;52.50;;;;;;6307050;22;19995;-75
2022/11/02 12:24:57;;;;;;;4.38;2.20;;;19.90;51.80;;;;;;6307822;22;20014;-76
2022/11/02 12:27:29;;;;;;;8.43;2.60;;;19.90;51.20;;;;;;6307921;22;20000;-75
2022/11/02 12:30:13;;;;;;;7.65;2.60;;;20.00;51.10;;;;;;6307752;22;20003;-75
2022/11/02 12:32:59;;;;;;;11.18;3.25;;;20.00;51.60;;;;;;6307700;22;20006;-74
2022/11/02 12:35:48;;;;;;;7.32;2.45;;;20.00;51.30;;;;;;6307469;22;20007;-74
2022/11/02 12:38:20;;;;;;;10.13;3.45;;;19.90;51.30;;;;;;6307578;22;20327;-72
2022/11/02 12:41:08;;;;;;;8.45;2.40;;;19.90;51.30;;;;;;6307433;22;20000;-72
2022/11/02 12:43:49;;;;;;;7.18;2.60;;;20.00;51.50;;;;;;6307112;22;20331;-71
2022/11/02 12:46:34;;;;;;;7.72;2.50;;;20.00;51.30;;;;;;6307339;22;20019;-71
2022/11/02 12:49:33;;;;;;;9.02;2.22;;;20.00;51.20;;;;;;6307032;22;19995;-71
2022/11/02 12:52:44;;;;;;;5.07;1.83;;;20.00;50.80;;;;;;6306701;22;20414;-72
2022/11/02 12:55:17;;;;;;;10.02;2.33;;;19.90;50.40;;;;;;6152483;23;20441;-71
2022/11/02 12:57:45;;;;;;;5.63;2.33;;;19.90;49.90;;;;;;6150746;23;20017;-71
2022/11/02 13:00:21;;;;;;;8.07;2.28;;;19.90;50.20;;;;;;6151364;23;20025;-71
2022/11/02 13:03:17;;;;;;;10.00;2.45;;;19.90;49.10;;;;;;6152392;23;20097;-71